Terminal Aerodrome Forecast
Issued by NWS

Home | Current Version | Previous Version | Text Only | Print | Product List | Glossary On
Versions: 1 2 3 4 5 6 7 8 9 10 11 12 13 14 15 16
000
FTUS46 KSGX 291700
TAFCRQ
TAF
KCRQ 291728Z 2918/3018 23006KT P6SM OVC120
     FM300200 17005KT P6SM SCT015 BKN070 OVC100
     FM300600 VRB03KT P6SM BKN015 OVC060
     FM301200 14005KT P6SM VCSH OVC015=

USA.gov is the U.S. government's official web portal to all federal, state and local government web resources and services.